createdAt,value
2022-10-17T00:00:23.122Z,1.53
2022-10-17T00:02:50.968Z,1.50
2022-10-17T00:05:18.905Z,1.50
2022-10-17T00:07:46.689Z,2.00
2022-10-17T00:10:14.664Z,1.50
2022-10-17T00:12:42.455Z,1.53
2022-10-17T00:15:12.306Z,1.73
2022-10-17T00:17:41.976Z,1.60
2022-10-17T00:20:10.242Z,1.57
2022-10-17T00:22:38.010Z,1.43
2022-10-17T00:25:06.601Z,1.90
2022-10-17T00:27:36.204Z,1.33
2022-10-17T00:30:05.597Z,1.67
2022-10-17T00:32:33.447Z,1.50
2022-10-17T00:35:03.143Z,1.70
2022-10-17T00:37:31.839Z,1.60
2022-10-17T00:39:59.696Z,1.70
2022-10-17T00:42:28.081Z,1.77
2022-10-17T00:45:08.370Z,1.87
2022-10-17T00:47:37.845Z,1.90
2022-10-17T00:50:08.722Z,1.70
2022-10-17T00:52:36.939Z,1.93
2022-10-17T00:55:10.380Z,1.40
2022-10-17T00:57:38.232Z,1.70
2022-10-17T01:00:10.707Z,1.70
2022-10-17T01:02:39.287Z,1.63
2022-10-17T01:05:09.628Z,1.60
2022-10-17T01:07:38.976Z,1.80
2022-10-17T01:10:08.529Z,1.97
2022-10-17T01:12:49.124Z,1.93
2022-10-17T01:15:29.236Z,1.60
2022-10-17T01:18:08.349Z,1.73
2022-10-17T01:20:59.461Z,1.73
2022-10-17T01:23:39.838Z,1.57
2022-10-17T01:26:20.043Z,1.90
2022-10-17T01:29:07.251Z,1.93
2022-10-17T01:31:41.217Z,1.70
2022-10-17T01:34:15.511Z,1.63
2022-10-17T01:36:50.247Z,1.97
2022-10-17T01:39:25.027Z,1.40
2022-10-17T01:42:02.126Z,1.63
2022-10-17T01:44:38.226Z,1.90
2022-10-17T01:47:11.089Z,1.90
2022-10-17T01:49:42.176Z,2.10
2022-10-17T01:52:13.492Z,2.00
2022-10-17T01:54:45.004Z,2.10
2022-10-17T01:57:20.716Z,1.57
2022-10-17T01:59:53.111Z,1.90
2022-10-17T02:02:22.603Z,1.80
2022-10-17T02:04:53.103Z,1.50
2022-10-17T02:07:20.904Z,2.00
2022-10-17T02:09:48.734Z,1.90
2022-10-17T02:12:42.877Z,1.70
2022-10-17T02:15:29.431Z,2.30
2022-10-17T02:18:11.557Z,2.40
2022-10-17T02:20:49.172Z,2.30
2022-10-17T02:23:24.624Z,2.13
2022-10-17T02:25:56.910Z,1.50
2022-10-17T02:28:31.311Z,2.20
2022-10-17T02:31:05.380Z,1.70
2022-10-17T02:33:40.666Z,2.00
2022-10-17T02:36:15.025Z,1.90
2022-10-17T02:38:44.707Z,1.70
2022-10-17T02:41:17.138Z,1.70
2022-10-17T02:43:46.718Z,1.77
2022-10-17T02:46:20.738Z,1.60
2022-10-17T02:48:53.241Z,2.13
2022-10-17T02:51:28.014Z,1.80
2022-10-17T02:54:02.538Z,1.63
2022-10-17T02:56:35.940Z,1.90
2022-10-17T02:59:06.231Z,2.00
2022-10-17T03:01:34.095Z,4.20
2022-10-17T03:04:11.176Z,2.87
2022-10-17T03:06:39.032Z,2.23
2022-10-17T03:09:06.921Z,1.80
2022-10-17T03:11:35.024Z,2.37
2022-10-17T03:14:02.784Z,2.03
2022-10-17T03:16:30.628Z,2.10
2022-10-17T03:18:58.440Z,2.30
2022-10-17T03:21:27.582Z,1.93
2022-10-17T03:23:55.364Z,2.00
2022-10-17T03:26:23.220Z,2.63
2022-10-17T03:28:53.657Z,1.90
2022-10-17T03:31:23.100Z,1.73
2022-10-17T03:33:50.859Z,1.70
2022-10-17T03:36:20.253Z,1.87
2022-10-17T03:38:49.666Z,2.00
2022-10-17T03:41:17.460Z,1.87
2022-10-17T03:43:45.272Z,1.80
2022-10-17T03:46:13.102Z,1.73
2022-10-17T03:48:40.884Z,2.33
2022-10-17T03:51:10.473Z,1.80
2022-10-17T03:53:38.332Z,1.90
2022-10-17T03:56:15.488Z,1.77
2022-10-17T03:58:44.155Z,1.87
2022-10-17T04:01:13.805Z,2.20
2022-10-17T04:03:42.137Z,2.13
2022-10-17T04:06:13.161Z,2.40
2022-10-17T04:08:42.537Z,2.13
2022-10-17T04:11:15.735Z,1.80
2022-10-17T04:13:43.658Z,1.90
2022-10-17T04:16:15.223Z,2.10
2022-10-17T04:18:43.621Z,2.30
2022-10-17T04:21:12.216Z,2.17
2022-10-17T04:23:40.553Z,2.03
2022-10-17T04:26:08.352Z,2.00
2022-10-17T04:31:14.134Z,2.20
2022-10-17T04:33:42.596Z,3.23
2022-10-17T04:36:13.529Z,3.30
2022-10-17T04:38:41.532Z,7.83
2022-10-17T04:41:12.028Z,3.50
2022-10-17T04:43:44.393Z,4.87
2022-10-17T04:46:15.861Z,4.57
2022-10-17T04:48:43.667Z,3.60
2022-10-17T04:51:13.465Z,4.93
2022-10-17T04:53:42.359Z,3.33
2022-10-17T04:56:11.576Z,3.33
2022-10-17T04:58:41.261Z,3.60
2022-10-17T05:01:10.492Z,4.20
2022-10-17T05:03:38.554Z,4.60
2022-10-17T05:06:08.123Z,5.37
2022-10-17T05:08:36.639Z,12.67
2022-10-17T05:11:05.675Z,11.63
2022-10-17T05:13:33.582Z,14.50
2022-10-17T05:16:03.108Z,11.47
2022-10-17T05:18:30.876Z,10.93
2022-10-17T05:20:58.634Z,9.17
2022-10-17T05:23:26.473Z,6.30
2022-10-17T05:25:57.700Z,8.87
2022-10-17T05:28:25.599Z,7.67
2022-10-17T05:30:53.420Z,4.93
2022-10-17T05:33:23.701Z,4.40
2022-10-17T05:35:51.470Z,5.43
2022-10-17T05:38:19.226Z,4.63
2022-10-17T05:40:46.992Z,5.00
2022-10-17T05:43:14.800Z,3.37
2022-10-17T05:45:42.696Z,3.10
2022-10-17T05:48:10.446Z,2.80
2022-10-17T05:50:39.554Z,2.70
2022-10-17T05:53:07.297Z,3.30
2022-10-17T05:55:35.075Z,2.40
2022-10-17T05:58:03.347Z,1.93
2022-10-17T06:00:31.124Z,6.20
2022-10-17T06:02:58.920Z,2.40
2022-10-17T06:05:26.799Z,2.10
2022-10-17T06:07:58.247Z,2.60
2022-10-17T06:10:28.923Z,3.60
2022-10-17T06:12:57.516Z,3.00
2022-10-17T06:15:25.325Z,3.10
2022-10-17T06:17:53.064Z,3.20
2022-10-17T06:20:20.877Z,2.73
2022-10-17T06:22:48.630Z,2.47
2022-10-17T06:25:17.778Z,2.30
2022-10-17T06:27:45.554Z,3.63
2022-10-17T06:30:13.357Z,2.33
2022-10-17T06:32:41.215Z,2.73
2022-10-17T06:35:09.510Z,3.23
2022-10-17T06:37:37.825Z,3.80
2022-10-17T06:40:08.272Z,3.60
2022-10-17T06:42:37.395Z,3.80
2022-10-17T06:45:05.992Z,4.10
2022-10-17T06:47:33.743Z,4.00
2022-10-17T06:50:01.575Z,3.30
2022-10-17T06:52:29.340Z,4.23
2022-10-17T06:54:57.193Z,3.30
2022-10-17T06:57:25.149Z,3.33
2022-10-17T06:59:55.384Z,2.87
2022-10-17T07:02:24.070Z,2.90
2022-10-17T07:04:51.839Z,2.97
2022-10-17T07:07:19.701Z,2.10
2022-10-17T07:09:47.486Z,2.60
2022-10-17T07:12:15.251Z,2.83
2022-10-17T07:14:43.031Z,2.80
2022-10-17T07:17:13.283Z,2.67
2022-10-17T07:19:43.291Z,2.60
2022-10-17T07:22:11.109Z,2.23
2022-10-17T07:24:38.968Z,2.47
2022-10-17T07:27:06.787Z,2.57
2022-10-17T07:29:34.618Z,3.10
2022-10-17T07:32:03.912Z,2.90
2022-10-17T07:34:34.083Z,4.57
2022-10-17T07:37:01.967Z,4.00
2022-10-17T07:39:30.243Z,3.10
2022-10-17T07:41:58.744Z,3.33
2022-10-17T07:44:26.580Z,3.53
2022-10-17T07:46:54.331Z,4.03
2022-10-17T07:49:22.122Z,2.63
2022-10-17T07:51:51.276Z,2.70
2022-10-17T07:54:19.076Z,2.50
2022-10-17T07:56:50.366Z,2.30
2022-10-17T07:59:19.012Z,2.50
2022-10-17T08:01:46.783Z,2.50
2022-10-17T08:04:16.702Z,2.37
2022-10-17T08:06:44.600Z,2.43
2022-10-17T08:09:13.851Z,2.60
2022-10-17T08:11:43.815Z,2.07
2022-10-17T08:14:12.055Z,2.10
2022-10-17T08:16:40.034Z,2.27
2022-10-17T08:21:41.872Z,1.90
2022-10-17T08:24:09.922Z,2.10
2022-10-17T08:26:42.351Z,3.37
2022-10-17T08:29:14.962Z,3.30
2022-10-17T08:31:47.427Z,1.80
2022-10-17T08:34:16.769Z,2.10
2022-10-17T08:36:44.520Z,2.37
2022-10-17T08:39:12.294Z,2.07
2022-10-17T08:41:54.770Z,1.60
2022-10-17T08:44:32.601Z,1.70
2022-10-17T08:47:03.409Z,2.50
2022-10-17T08:49:41.513Z,1.93
2022-10-17T08:52:16.066Z,1.73
2022-10-17T08:54:46.943Z,1.67
2022-10-17T08:57:18.284Z,2.00
2022-10-17T08:59:50.335Z,1.83
2022-10-17T09:02:40.144Z,2.10
2022-10-17T09:05:35.788Z,1.73
2022-10-17T09:08:11.763Z,2.40
2022-10-17T09:10:53.528Z,2.17
2022-10-17T09:13:33.669Z,1.73
2022-10-17T09:16:15.870Z,2.30
2022-10-17T09:18:48.763Z,2.03
2022-10-17T09:21:21.799Z,2.50
2022-10-17T09:23:59.661Z,2.00
2022-10-17T09:26:38.283Z,2.23
2022-10-17T09:29:22.336Z,2.30
2022-10-17T09:31:58.488Z,2.30
2022-10-17T09:34:29.088Z,1.87
2022-10-17T09:36:59.530Z,2.10
2022-10-17T09:39:31.743Z,2.23
2022-10-17T09:42:01.164Z,2.10
2022-10-17T09:44:33.714Z,2.53
2022-10-17T09:47:24.102Z,2.10
2022-10-17T09:49:52.460Z,2.07
2022-10-17T09:52:23.319Z,2.00
2022-10-17T09:54:53.424Z,1.63
2022-10-17T09:57:22.495Z,1.85
2022-10-17T09:59:59.781Z,2.08
2022-10-17T10:02:29.584Z,1.70
2022-10-17T10:05:05.564Z,2.13
2022-10-17T10:07:35.753Z,1.88
2022-10-17T10:10:05.433Z,1.88
2022-10-17T10:12:35.586Z,2.25
2022-10-17T10:15:33.017Z,2.15
2022-10-17T10:18:00.930Z,2.38
2022-10-17T10:20:36.768Z,2.10
2022-10-17T10:23:12.274Z,2.47
2022-10-17T10:25:49.798Z,2.40
2022-10-17T10:28:18.637Z,2.88
2022-10-17T10:30:52.204Z,4.00
2022-10-17T10:33:21.476Z,4.47
2022-10-17T10:35:58.483Z,4.63
2022-10-17T10:38:26.539Z,3.40
2022-10-17T10:40:56.927Z,3.05
2022-10-17T10:43:33.010Z,2.58
2022-10-17T10:46:03.228Z,2.53
2022-10-17T10:48:35.090Z,2.88
2022-10-17T10:51:08.915Z,2.13
2022-10-17T10:53:46.605Z,2.25
2022-10-17T10:56:19.824Z,1.42
2022-10-17T10:58:54.827Z,2.10
2022-10-17T11:01:31.240Z,1.85
2022-10-17T11:04:13.035Z,1.70
2022-10-17T11:06:45.207Z,1.90
2022-10-17T11:09:24.416Z,1.77
2022-10-17T11:11:57.203Z,2.03
2022-10-17T11:14:35.347Z,1.63
2022-10-17T11:17:11.525Z,2.08
2022-10-17T11:19:45.597Z,1.77
2022-10-17T11:22:17.529Z,1.50
2022-10-17T11:24:56.774Z,1.90
2022-10-17T11:27:25.301Z,2.00
2022-10-17T11:29:53.098Z,1.83
2022-10-17T11:32:25.780Z,1.70
2022-10-17T11:34:59.065Z,1.50
2022-10-17T11:37:31.547Z,2.05
2022-10-17T11:40:03.055Z,1.77
2022-10-17T11:42:35.363Z,2.00
2022-10-17T11:45:07.213Z,1.80
2022-10-17T11:47:44.969Z,1.80
2022-10-17T11:53:14.986Z,1.90
2022-10-17T11:55:43.993Z,2.08
2022-10-17T11:58:26.769Z,1.60
2022-10-17T12:01:04.578Z,1.80
2022-10-17T12:03:43.828Z,2.47
2022-10-17T12:06:18.746Z,1.73
2022-10-17T12:08:53.223Z,1.90
2022-10-17T12:11:34.509Z,2.03
2022-10-17T12:14:05.835Z,1.63
2022-10-17T12:16:49.012Z,1.85
2022-10-17T12:19:32.625Z,2.45
2022-10-17T12:22:16.945Z,2.17
2022-10-17T12:24:46.609Z,1.92
2022-10-17T12:27:36.054Z,1.98
2022-10-17T12:30:08.256Z,2.10
2022-10-17T12:33:00.484Z,2.10
2022-10-17T12:35:27.252Z,2.17
2022-10-17T12:38:29.622Z,1.75
2022-10-17T12:41:02.312Z,1.70
2022-10-17T12:43:57.239Z,2.00
2022-10-17T12:46:47.208Z,1.77
2022-10-17T12:49:24.144Z,1.90
2022-10-17T12:52:19.849Z,1.80
2022-10-17T12:55:00.265Z,1.45
2022-10-17T12:57:43.481Z,1.45
2022-10-17T13:00:21.846Z,1.73
2022-10-17T13:02:50.816Z,1.45
2022-10-17T13:05:25.562Z,1.27
2022-10-17T13:07:56.225Z,1.27
2022-10-17T13:13:06.827Z,1.40
2022-10-17T13:15:35.648Z,1.52
2022-10-17T13:18:03.527Z,1.23
2022-10-17T13:20:33.283Z,1.05
2022-10-17T13:23:02.480Z,2.47
2022-10-17T13:25:30.416Z,1.08
2022-10-17T13:28:13.577Z,1.10
2022-10-17T13:30:49.660Z,1.08
2022-10-17T13:33:29.849Z,1.00
2022-10-17T13:36:01.324Z,1.00
2022-10-17T13:38:34.909Z,0.80
2022-10-17T13:41:33.609Z,0.80
2022-10-17T13:43:53.811Z,1.10
2022-10-17T13:46:38.343Z,1.02
2022-10-17T13:49:24.516Z,2.55
2022-10-17T13:51:56.997Z,1.80
2022-10-17T13:54:38.340Z,1.20
2022-10-17T13:57:07.484Z,1.60
2022-10-17T13:59:41.274Z,1.30
2022-10-17T14:02:15.442Z,1.65
2022-10-17T14:05:15.606Z,1.48
2022-10-17T14:08:05.551Z,1.30
2022-10-17T14:10:28.563Z,1.60
2022-10-17T14:12:56.749Z,1.02
2022-10-17T14:15:27.871Z,3.47
2022-10-17T14:17:58.167Z,6.03
2022-10-17T14:23:35.067Z,1.38
2022-10-17T14:26:16.404Z,1.30
2022-10-17T14:28:46.455Z,1.83
2022-10-17T14:31:25.833Z,1.65
2022-10-17T14:33:55.118Z,1.92
2022-10-17T14:36:32.851Z,1.70
2022-10-17T14:39:01.943Z,1.63
2022-10-17T14:41:43.259Z,1.83
2022-10-17T14:44:20.372Z,1.38
2022-10-17T14:46:51.084Z,1.60
2022-10-17T14:49:32.988Z,1.73
2022-10-17T14:52:28.906Z,1.83
2022-10-17T14:54:57.787Z,1.73
2022-10-17T14:57:30.448Z,1.45
2022-10-17T14:59:58.806Z,1.80
2022-10-17T15:02:28.485Z,1.70
2022-10-17T15:04:56.767Z,1.73
2022-10-17T15:07:24.654Z,2.03
2022-10-17T15:09:54.353Z,2.13
2022-10-17T15:12:24.769Z,1.88
2022-10-17T15:14:54.727Z,1.80
2022-10-17T15:17:25.818Z,1.75
2022-10-17T15:19:53.941Z,2.10
2022-10-17T15:22:21.881Z,1.90
2022-10-17T15:24:49.966Z,2.10
2022-10-17T15:27:19.604Z,1.60
2022-10-17T15:29:48.101Z,1.57
2022-10-17T15:32:17.570Z,1.80
2022-10-17T15:34:45.773Z,1.60
2022-10-17T15:37:21.884Z,2.08
2022-10-17T15:39:53.416Z,1.73
2022-10-17T15:42:23.141Z,1.65
2022-10-17T15:44:51.026Z,1.60
2022-10-17T15:47:26.019Z,1.88
2022-10-17T15:49:53.945Z,1.80
2022-10-17T15:52:22.130Z,1.95
2022-10-17T15:54:50.177Z,1.77
2022-10-17T15:57:21.299Z,1.60
2022-10-17T15:59:50.246Z,2.33
2022-10-17T16:02:20.161Z,1.50
2022-10-17T16:04:50.403Z,1.73
2022-10-17T16:07:19.173Z,1.80
2022-10-17T16:09:47.356Z,1.70
2022-10-17T16:12:18.274Z,1.97
2022-10-17T16:14:46.152Z,2.23
2022-10-17T16:17:15.345Z,2.70
2022-10-17T16:19:44.655Z,2.83
2022-10-17T16:22:27.382Z,3.40
2022-10-17T16:24:59.064Z,3.17
2022-10-17T16:27:27.209Z,2.70
2022-10-17T16:29:54.972Z,2.60
2022-10-17T16:32:22.766Z,2.80
2022-10-17T16:34:50.568Z,2.80
2022-10-17T16:37:19.693Z,2.87
2022-10-17T16:39:52.207Z,2.50
2022-10-17T16:42:20.158Z,2.30
2022-10-17T16:44:47.950Z,2.03
2022-10-17T16:47:15.737Z,2.00
2022-10-17T16:49:45.365Z,1.87
2022-10-17T16:52:13.833Z,1.77
2022-10-17T16:54:42.936Z,2.43
2022-10-17T16:57:11.029Z,5.30
2022-10-17T16:59:38.929Z,6.07
2022-10-17T17:02:07.066Z,5.43
2022-10-17T17:04:34.860Z,4.70
2022-10-17T17:07:03.094Z,4.23
2022-10-17T17:09:30.853Z,3.40
2022-10-17T17:12:00.842Z,3.40
2022-10-17T17:14:28.703Z,2.20
2022-10-17T17:16:56.504Z,2.77
2022-10-17T17:19:24.396Z,2.50
2022-10-17T17:21:52.175Z,2.30
2022-10-17T17:24:21.758Z,2.63
2022-10-17T17:26:52.334Z,1.80
2022-10-17T17:29:21.951Z,2.10
2022-10-17T17:31:49.936Z,2.47
2022-10-17T17:34:18.421Z,2.20
2022-10-17T17:36:46.768Z,1.97
2022-10-17T17:39:15.994Z,1.97
2022-10-17T17:41:45.499Z,2.10
2022-10-17T17:44:16.654Z,1.70
2022-10-17T17:46:46.664Z,1.80
2022-10-17T17:49:14.819Z,1.80
2022-10-17T17:51:46.120Z,1.77
2022-10-17T17:54:14.218Z,1.80
2022-10-17T17:56:42.003Z,1.87
2022-10-17T17:59:12.775Z,1.77
2022-10-17T18:01:41.304Z,1.73
2022-10-17T18:04:10.770Z,1.80
2022-10-17T18:06:39.294Z,1.60
2022-10-17T18:09:07.770Z,1.80
2022-10-17T18:11:35.987Z,1.97
2022-10-17T18:14:06.028Z,2.00
2022-10-17T18:16:35.883Z,2.43
2022-10-17T18:19:07.175Z,2.27
2022-10-17T18:21:37.099Z,3.10
2022-10-17T18:24:05.797Z,3.43
2022-10-17T18:26:34.633Z,2.53
2022-10-17T18:29:02.712Z,2.50
2022-10-17T18:31:35.340Z,2.60
2022-10-17T18:34:03.883Z,2.20
2022-10-17T18:36:33.228Z,2.10
2022-10-17T18:39:03.002Z,3.43
2022-10-17T18:41:31.386Z,5.90
2022-10-17T18:43:59.382Z,17.80
2022-10-17T18:46:29.614Z,20.57
2022-10-17T18:48:57.584Z,16.03
2022-10-17T18:51:26.720Z,8.90
2022-10-17T18:53:58.491Z,7.23
2022-10-17T18:56:28.132Z,4.07
2022-10-17T18:58:56.995Z,3.43
2022-10-17T19:01:28.233Z,3.70
2022-10-17T19:03:58.708Z,3.23
2022-10-17T19:06:31.499Z,3.00
2022-10-17T19:09:00.093Z,3.13
2022-10-17T19:11:30.991Z,3.00
2022-10-17T19:14:01.468Z,3.70
2022-10-17T19:16:32.028Z,3.10
2022-10-17T19:19:02.478Z,2.70
2022-10-17T19:21:30.463Z,2.60
2022-10-17T19:24:00.655Z,2.27
2022-10-17T19:26:31.571Z,2.07
2022-10-17T19:29:00.515Z,1.93
2022-10-17T19:31:31.486Z,2.37
2022-10-17T19:33:59.623Z,3.10
2022-10-17T19:36:32.499Z,2.93
2022-10-17T19:39:02.612Z,3.10
2022-10-17T19:41:32.249Z,3.43
2022-10-17T19:44:01.175Z,7.77
2022-10-17T19:46:30.683Z,5.47
2022-10-17T19:48:58.833Z,5.30
2022-10-17T19:51:27.425Z,5.30
2022-10-17T19:53:56.933Z,4.37
2022-10-17T19:56:25.868Z,4.67
2022-10-17T19:58:56.150Z,5.03
2022-10-17T20:01:26.632Z,4.67
2022-10-17T20:03:55.412Z,3.60
2022-10-17T20:06:23.413Z,3.27
2022-10-17T20:08:51.418Z,2.93
2022-10-17T20:11:21.757Z,3.20
2022-10-17T20:13:49.923Z,2.87
2022-10-17T20:16:21.217Z,2.30
2022-10-17T20:18:49.638Z,1.77
2022-10-17T20:21:19.191Z,1.97
2022-10-17T20:23:47.907Z,1.87
2022-10-17T20:26:37.555Z,1.90
2022-10-17T20:29:10.840Z,2.40
2022-10-17T20:31:42.536Z,1.80
2022-10-17T20:34:12.847Z,3.23
2022-10-17T20:36:40.850Z,2.80
2022-10-17T20:39:10.601Z,4.83
2022-10-17T20:41:38.436Z,4.00
2022-10-17T20:44:07.725Z,8.67
2022-10-17T20:46:37.658Z,8.53
2022-10-17T20:49:10.224Z,5.90
2022-10-17T20:51:37.967Z,4.10
2022-10-17T20:54:05.787Z,3.27
2022-10-17T20:56:34.958Z,3.93
2022-10-17T20:59:04.940Z,4.00
2022-10-17T21:01:34.873Z,3.93
2022-10-17T21:04:27.062Z,4.00
2022-10-17T21:06:53.340Z,5.43
2022-10-17T21:09:21.788Z,4.07
2022-10-17T21:11:51.330Z,4.30
2022-10-17T21:14:19.494Z,2.83
2022-10-17T21:16:47.744Z,2.40
2022-10-17T21:19:16.464Z,2.80
2022-10-17T21:21:46.589Z,3.00
2022-10-17T21:24:18.058Z,3.23
2022-10-17T21:26:47.124Z,3.00
2022-10-17T21:29:15.540Z,2.80
2022-10-17T21:31:45.132Z,2.67
2022-10-17T21:34:15.128Z,2.43
2022-10-17T21:36:43.468Z,2.40
2022-10-17T21:39:12.552Z,2.00
2022-10-17T21:41:42.539Z,2.20
2022-10-17T21:44:14.031Z,2.53
2022-10-17T21:46:42.009Z,2.70
2022-10-17T21:49:12.385Z,2.23
2022-10-17T21:51:40.418Z,2.57
2022-10-17T21:54:08.634Z,2.80
2022-10-17T21:56:36.441Z,2.43
2022-10-17T21:59:06.372Z,2.43
2022-10-17T22:01:36.309Z,2.37
2022-10-17T22:04:09.029Z,2.20
2022-10-17T22:06:40.091Z,2.13
2022-10-17T22:09:10.645Z,2.13
2022-10-17T22:11:38.457Z,2.50
2022-10-17T22:14:15.919Z,2.20
2022-10-17T22:16:44.951Z,2.50
2022-10-17T22:19:14.059Z,2.83
2022-10-17T22:21:42.090Z,2.97
2022-10-17T22:24:13.042Z,2.43
2022-10-17T22:26:41.072Z,2.10
2022-10-17T22:29:11.040Z,2.17
2022-10-17T22:31:39.395Z,2.20
2022-10-17T22:34:08.073Z,2.50
2022-10-17T22:36:36.716Z,2.60
2022-10-17T22:39:05.314Z,2.20
2022-10-17T22:41:33.170Z,1.97
2022-10-17T22:44:01.257Z,2.60
2022-10-17T22:46:30.466Z,2.53
2022-10-17T22:48:58.271Z,2.27
2022-10-17T22:51:26.094Z,2.70
2022-10-17T22:53:53.894Z,2.13
2022-10-17T22:56:22.821Z,1.90
2022-10-17T22:58:51.393Z,2.10
2022-10-17T23:01:21.215Z,2.37
2022-10-17T23:03:51.268Z,2.47
2022-10-17T23:06:19.731Z,2.33
2022-10-17T23:08:47.856Z,2.10
2022-10-17T23:11:15.973Z,2.10
2022-10-17T23:13:43.793Z,2.30
2022-10-17T23:16:11.535Z,16.73
2022-10-17T23:18:40.109Z,7.73
2022-10-17T23:21:09.589Z,4.00
2022-10-17T23:23:37.487Z,4.00
2022-10-17T23:26:07.319Z,3.13
2022-10-17T23:28:35.587Z,2.93
2022-10-17T23:31:14.334Z,4.43
2022-10-17T23:33:42.386Z,2.63
2022-10-17T23:36:12.524Z,2.60
2022-10-17T23:38:41.035Z,2.60
2022-10-17T23:41:09.347Z,2.40
2022-10-17T23:43:37.429Z,2.67
2022-10-17T23:46:06.987Z,2.53
2022-10-17T23:48:35.049Z,2.60
2022-10-17T23:51:02.956Z,2.60
2022-10-17T23:53:32.300Z,2.37
2022-10-17T23:56:00.183Z,2.40
2022-10-17T23:58:28.111Z,2.20
